Time;durP1;ratioP1;P1;durP2;ratioP2;P2;SDS_P1;SDS_P2;PMS_P1;PMS_P2;Temp;Humidity;BMP_temperature;BMP_pressure;BME280_temperature;BME280_humidity;BME280_pressure;Samples;Min_cycle;Max_cycle;Signal;HPM_P1;HPM_P2
2023/01/19 00:00:05;;;;;;;13.07;9.90;;;-0.60;99.90;;;;;;5091340;28;20382;-73
2023/01/19 00:02:30;;;;;;;11.73;10.27;;;-0.70;99.90;;;;;;5091696;28;20402;-73
2023/01/19 00:04:57;;;;;;;14.00;10.27;;;-0.70;99.90;;;;;;5091957;28;20938;-73
2023/01/19 00:07:22;;;;;;;10.32;9.10;;;-0.60;99.90;;;;;;5070223;28;20382;-73
2023/01/19 00:09:48;;;;;;;12.20;9.50;;;-0.70;99.90;;;;;;5090407;28;20390;-73
2023/01/19 00:12:13;;;;;;;11.60;8.97;;;-0.80;99.90;;;;;;5092034;28;20929;-74
2023/01/19 00:14:39;;;;;;;10.47;9.40;;;-0.70;99.90;;;;;;5091381;28;20392;-73
2023/01/19 00:17:04;;;;;;;10.10;8.90;;;-0.80;99.90;;;;;;5092401;28;20423;-74
2023/01/19 00:19:30;;;;;;;11.73;10.13;;;-0.90;99.90;;;;;;5073500;28;20435;-73
2023/01/19 00:21:55;;;;;;;11.30;9.03;;;-0.80;99.90;;;;;;5091796;28;20776;-71
2023/01/19 00:24:21;;;;;;;11.20;9.17;;;-0.80;99.90;;;;;;5091326;28;20955;-73
2023/01/19 00:26:46;;;;;;;11.83;8.80;;;-0.80;99.90;;;;;;5091816;28;20461;-73
2023/01/19 00:29:14;;;;;;;11.23;9.07;;;-0.80;99.90;;;;;;5091402;28;20390;-73
2023/01/19 00:31:39;;;;;;;10.40;9.30;;;-0.80;99.90;;;;;;5091350;28;20386;-73
2023/01/19 00:34:06;;;;;;;9.20;7.90;;;-0.80;99.90;;;;;;5090423;28;20957;-73
2023/01/19 00:36:32;;;;;;;9.90;8.63;;;-0.90;99.90;;;;;;5091666;28;20382;-73
2023/01/19 00:38:58;;;;;;;10.27;8.40;;;-1.00;99.90;;;;;;5091571;28;20374;-73
2023/01/19 00:44:08;;;;;;;10.38;8.88;;;-1.00;99.90;;;;;;5090433;28;20408;-73
2023/01/19 00:46:34;;;;;;;9.52;8.52;;;-1.10;99.90;;;;;;5091402;28;20413;-73
2023/01/19 00:48:59;;;;;;;10.93;8.00;;;-1.00;99.90;;;;;;5091068;28;20426;-73
2023/01/19 00:51:25;;;;;;;9.73;8.70;;;-1.00;99.90;;;;;;5090866;28;20401;-73
2023/01/19 00:53:50;;;;;;;11.07;8.90;;;-1.00;99.90;;;;;;5090374;28;20406;-72
2023/01/19 00:56:16;;;;;;;10.97;9.17;;;-1.10;99.90;;;;;;5072986;28;20871;-73
2023/01/19 00:58:43;;;;;;;10.13;8.80;;;-1.10;99.90;;;;;;5091539;28;20420;-73
2023/01/19 01:01:09;;;;;;;9.82;8.82;;;-1.00;99.90;;;;;;5090498;28;20402;-73
2023/01/19 01:03:35;;;;;;;11.70;8.80;;;-1.00;99.90;;;;;;5089817;28;20401;-73
2023/01/19 01:06:02;;;;;;;9.70;7.93;;;-1.10;99.90;;;;;;5091057;28;20382;-73
2023/01/19 01:08:28;;;;;;;8.60;7.70;;;-1.10;99.90;;;;;;5090976;28;20445;-73
2023/01/19 01:10:55;;;;;;;10.90;9.10;;;-1.10;99.90;;;;;;5090984;28;20382;-73
2023/01/19 01:13:20;;;;;;;10.00;8.10;;;-1.10;99.90;;;;;;5089856;28;20407;-73
2023/01/19 01:15:50;;;;;;;10.07;8.10;;;-1.20;99.90;;;;;;5090902;28;20390;-73
2023/01/19 01:18:15;;;;;;;9.63;7.90;;;-1.30;99.90;;;;;;5072699;28;20393;-72
2023/01/19 01:20:41;;;;;;;8.90;7.47;;;-1.30;99.90;;;;;;5090658;28;20382;-71
2023/01/19 01:23:06;;;;;;;9.20;8.17;;;-1.20;99.90;;;;;;5089737;28;20432;-72
2023/01/19 01:25:36;;;;;;;10.60;8.40;;;-1.30;99.90;;;;;;5090302;28;20477;-72
2023/01/19 01:28:03;;;;;;;11.98;8.35;;;-1.40;99.90;;;;;;5090688;28;20393;-71
2023/01/19 01:30:29;;;;;;;10.70;7.40;;;-1.40;99.90;;;;;;5090513;28;20382;-72
2023/01/19 01:32:54;;;;;;;9.77;8.07;;;-1.40;99.90;;;;;;5089544;28;20455;-71
2023/01/19 01:35:20;;;;;;;9.83;7.93;;;-1.40;99.90;;;;;;5071892;28;20472;-72
2023/01/19 01:37:46;;;;;;;9.20;8.03;;;-1.40;99.90;;;;;;5090031;28;20390;-72
2023/01/19 01:40:17;;;;;;;9.40;7.60;;;-1.30;99.90;;;;;;5090356;28;20449;-72
2023/01/19 01:42:43;;;;;;;10.68;8.30;;;-1.40;99.90;;;;;;5089603;28;20390;-72
2023/01/19 01:45:28;;;;;;;8.60;7.70;;;-1.40;99.90;;;;;;5090292;28;20392;-72
2023/01/19 01:48:07;;;;;;;8.20;7.40;;;-1.30;99.90;;;;;;5090061;28;20791;-72
2023/01/19 01:50:36;;;;;;;8.80;7.57;;;-1.30;99.90;;;;;;5071864;28;20438;-72
2023/01/19 01:53:12;;;;;;;7.78;6.93;;;-1.30;99.90;;;;;;5089129;28;20534;-71
2023/01/19 01:55:42;;;;;;;7.68;6.45;;;-1.40;99.90;;;;;;5090182;28;20767;-72
2023/01/19 01:58:09;;;;;;;8.87;6.70;;;-1.40;99.90;;;;;;5090191;28;20382;-72
2023/01/19 02:03:22;;;;;;;9.98;7.90;;;-1.50;99.90;;;;;;5116406;22;20439;-71
2023/01/19 02:05:48;;;;;;;10.52;7.28;;;-1.50;99.90;;;;;;5110302;28;20765;-71
2023/01/19 02:13:57;;;;;;;8.43;7.53;;;-1.50;99.90;;;;;;5089431;28;20432;-71
2023/01/19 02:16:23;;;;;;;7.97;7.05;;;-1.50;99.90;;;;;;5089618;28;20830;-72
2023/01/19 02:18:48;;;;;;;9.60;7.05;;;-1.40;99.90;;;;;;5090161;28;20378;-71
2023/01/19 02:21:18;;;;;;;8.50;6.65;;;-1.40;99.90;;;;;;5089886;28;20397;-71
2023/01/19 02:23:46;;;;;;;8.43;7.40;;;-1.40;99.90;;;;;;5092951;28;20374;-72
2023/01/19 02:26:15;;;;;;;8.05;6.82;;;-1.40;99.90;;;;;;5094324;28;20496;-71
2023/01/19 02:28:47;;;;;;;8.47;6.37;;;-1.20;99.90;;;;;;5094179;28;20402;-71
2023/01/19 02:31:14;;;;;;;8.13;6.60;;;-1.30;99.90;;;;;;5093901;28;20404;-71
2023/01/19 02:33:40;;;;;;;7.80;6.65;;;-1.30;99.90;;;;;;5093882;28;20409;-72
2023/01/19 02:36:08;;;;;;;7.80;6.63;;;-1.20;99.90;;;;;;5094724;28;20400;-71
2023/01/19 02:38:35;;;;;;;8.55;6.80;;;-1.20;99.90;;;;;;5094782;28;20374;-71
2023/01/19 02:41:04;;;;;;;7.93;6.13;;;-1.10;99.90;;;;;;5094391;28;20475;-71
2023/01/19 02:43:31;;;;;;;9.10;6.20;;;-1.20;99.90;;;;;;5093515;28;20440;-71
2023/01/19 02:45:57;;;;;;;7.20;6.30;;;-1.30;99.90;;;;;;5093908;28;20404;-71
2023/01/19 02:48:23;;;;;;;7.90;6.90;;;-1.30;99.90;;;;;;5093987;28;20468;-71
2023/01/19 02:50:52;;;;;;;7.60;6.25;;;-1.30;99.90;;;;;;5093812;28;20392;-71
2023/01/19 02:53:55;;;;;;;6.50;5.80;;;-1.20;99.90;;;;;;5093916;28;20768;-72
2023/01/19 02:56:36;;;;;;;7.10;5.70;;;-1.30;99.90;;;;;;5094669;28;20386;-71
2023/01/19 02:59:26;;;;;;;8.38;5.57;;;-1.50;99.90;;;;;;5094061;28;20808;-72
2023/01/19 03:02:04;;;;;;;6.47;5.55;;;-1.50;99.90;;;;;;5093429;28;20381;-72
2023/01/19 03:05:05;;;;;;;6.03;5.32;;;-1.50;99.90;;;;;;5092790;28;20393;-72
2023/01/19 03:07:41;;;;;;;7.85;5.13;;;-1.40;99.90;;;;;;5058766;28;20394;-72
2023/01/19 03:10:10;;;;;;;6.03;4.70;;;-1.30;99.90;;;;;;5073359;28;20409;-71
2023/01/19 03:12:45;;;;;;;5.55;5.05;;;-1.40;99.90;;;;;;5072358;28;20404;-72
2023/01/19 03:15:21;;;;;;;5.60;4.73;;;-1.40;99.90;;;;;;5088395;28;20741;-71
2023/01/19 03:17:48;;;;;;;6.10;5.30;;;-1.50;99.90;;;;;;5093500;28;21046;-71
2023/01/19 03:20:18;;;;;;;5.20;4.70;;;-1.50;99.90;;;;;;5093059;28;20390;-71
2023/01/19 03:22:46;;;;;;;5.40;4.90;;;-1.50;99.90;;;;;;5092638;28;20381;-72
2023/01/19 03:25:14;;;;;;;6.25;5.30;;;-1.50;99.90;;;;;;5093254;28;20393;-71
2023/01/19 03:27:42;;;;;;;5.53;4.37;;;-1.50;99.90;;;;;;5075171;28;20435;-71
2023/01/19 03:30:14;;;;;;;5.00;4.50;;;-1.50;99.90;;;;;;5092438;28;20408;-72
2023/01/19 03:32:59;;;;;;;5.28;4.43;;;-1.60;99.90;;;;;;5092037;28;20398;-71
2023/01/19 03:35:29;;;;;;;7.40;4.57;;;-1.60;99.90;;;;;;5091814;28;20382;-72
2023/01/19 03:37:57;;;;;;;6.00;5.07;;;-1.60;99.90;;;;;;5093093;28;20385;-71
2023/01/19 03:40:26;;;;;;;6.23;5.00;;;-1.60;99.90;;;;;;5093011;28;20401;-73
2023/01/19 03:42:52;;;;;;;6.63;5.00;;;-1.60;99.90;;;;;;5091925;28;20401;-71
2023/01/19 03:45:20;;;;;;;6.05;5.10;;;-1.70;99.90;;;;;;5092797;28;20472;-72
2023/01/19 03:47:46;;;;;;;6.75;5.00;;;-1.80;99.90;;;;;;5092770;28;20378;-71
2023/01/19 03:50:22;;;;;;;6.13;4.95;;;-1.70;99.90;;;;;;5092758;28;20386;-71
2023/01/19 03:53:00;;;;;;;6.32;5.20;;;-1.80;99.90;;;;;;5092019;28;20923;-72
2023/01/19 03:55:25;;;;;;;5.60;4.93;;;-1.90;99.90;;;;;;5092866;28;20414;-72
2023/01/19 03:57:51;;;;;;;6.50;5.43;;;-1.80;99.90;;;;;;5092931;28;20378;-71
2023/01/19 04:00:17;;;;;;;7.70;5.18;;;-1.90;99.90;;;;;;5092497;28;20382;-72
2023/01/19 04:02:42;;;;;;;5.93;5.32;;;-1.90;99.90;;;;;;5091764;28;20398;-71
2023/01/19 04:05:08;;;;;;;6.00;5.40;;;-1.90;99.90;;;;;;5092471;28;20767;-72
2023/01/19 04:07:33;;;;;;;6.03;5.00;;;-1.80;99.90;;;;;;5088775;28;20398;-72
2023/01/19 04:09:59;;;;;;;5.83;4.90;;;-1.80;99.90;;;;;;5072184;28;20469;-71
2023/01/19 04:12:24;;;;;;;5.33;4.80;;;-1.90;99.90;;;;;;5071651;28;20958;-71
2023/01/19 04:14:50;;;;;;;7.57;5.13;;;-1.90;99.90;;;;;;5084203;28;20390;-71
2023/01/19 04:17:15;;;;;;;5.50;4.90;;;-1.90;99.90;;;;;;5092349;28;20397;-71
2023/01/19 04:19:42;;;;;;;6.40;5.80;;;-1.90;99.90;;;;;;5092281;28;20409;-72
2023/01/19 04:22:07;;;;;;;6.30;5.20;;;-1.90;99.90;;;;;;5069965;28;20465;-71
2023/01/19 04:24:32;;;;;;;6.90;4.80;;;-2.00;99.90;;;;;;5091005;28;20390;-71
2023/01/19 04:26:58;;;;;;;6.73;5.17;;;-2.00;99.90;;;;;;5092015;28;20382;-72
2023/01/19 04:29:24;;;;;;;6.37;5.40;;;-2.10;99.90;;;;;;5091984;28;20374;-72
2023/01/19 04:31:49;;;;;;;5.73;4.93;;;-2.00;99.90;;;;;;5091567;28;20443;-72
2023/01/19 04:34:15;;;;;;;8.00;6.17;;;-2.00;99.90;;;;;;5091561;28;20453;-71
2023/01/19 04:36:40;;;;;;;7.17;5.50;;;-2.00;99.90;;;;;;5092308;28;20382;-71
2023/01/19 04:39:07;;;;;;;6.40;5.37;;;-2.10;99.90;;;;;;5092084;28;20392;-71
2023/01/19 04:41:33;;;;;;;6.90;5.70;;;-2.00;99.90;;;;;;5091981;28;20424;-71
2023/01/19 04:43:59;;;;;;;7.13;5.30;;;-2.10;99.90;;;;;;5091294;28;20378;-71
2023/01/19 04:46:24;;;;;;;6.95;5.60;;;-2.10;99.90;;;;;;5073489;28;20393;-72
2023/01/19 04:48:50;;;;;;;5.38;4.68;;;-2.10;99.90;;;;;;5057852;28;20731;-71
2023/01/19 04:51:15;;;;;;;5.88;5.35;;;-2.10;99.90;;;;;;5071868;28;20750;-72
2023/01/19 04:53:41;;;;;;;6.47;5.00;;;-2.10;99.90;;;;;;5070792;28;20406;-71
2023/01/19 04:56:06;;;;;;;6.65;5.30;;;-2.10;99.90;;;;;;5071556;28;20469;-72
2023/01/19 04:58:32;;;;;;;5.80;5.00;;;-2.10;99.90;;;;;;5064733;28;20386;-71
2023/01/19 05:00:57;;;;;;;6.80;5.20;;;-2.10;99.90;;;;;;5091530;28;20794;-71
2023/01/19 05:03:23;;;;;;;5.82;5.22;;;-2.20;99.90;;;;;;5090732;28;20390;-72
2023/01/19 05:05:48;;;;;;;6.63;5.40;;;-2.20;99.90;;;;;;5091904;28;20447;-71
2023/01/19 05:08:14;;;;;;;7.00;5.57;;;-2.10;99.90;;;;;;5090166;28;20401;-72
2023/01/19 05:10:39;;;;;;;5.90;5.30;;;-2.20;99.90;;;;;;5091639;28;20398;-71
2023/01/19 05:13:05;;;;;;;5.97;5.23;;;-2.20;99.90;;;;;;5089771;28;20497;-71
2023/01/19 05:15:30;;;;;;;6.90;5.20;;;-2.20;99.90;;;;;;5090930;28;20480;-72
2023/01/19 05:17:56;;;;;;;6.07;5.20;;;-2.40;99.90;;;;;;5091623;28;20389;-71
2023/01/19 05:20:23;;;;;;;5.07;4.53;;;-2.40;99.90;;;;;;5091567;28;20415;-71
2023/01/19 05:22:49;;;;;;;6.45;5.15;;;-2.40;99.90;;;;;;5090444;28;20394;-72
2023/01/19 05:25:15;;;;;;;6.32;4.97;;;-2.40;99.90;;;;;;5091347;28;20394;-72
2023/01/19 05:27:40;;;;;;;5.00;4.50;;;-2.40;99.90;;;;;;5091476;28;20411;-71
2023/01/19 05:30:07;;;;;;;5.23;4.73;;;-2.40;99.90;;;;;;5091017;28;20378;-71
2023/01/19 05:32:32;;;;;;;5.72;4.40;;;-2.30;99.90;;;;;;5090502;28;20741;-70
2023/01/19 05:34:58;;;;;;;5.68;5.00;;;-2.40;99.90;;;;;;5069398;28;20449;-71
2023/01/19 05:37:23;;;;;;;6.60;5.20;;;-2.40;99.90;;;;;;5070881;28;20889;-71
2023/01/19 05:39:49;;;;;;;5.40;4.60;;;-2.30;99.90;;;;;;5071023;28;20870;-71
2023/01/19 05:42:15;;;;;;;5.70;5.10;;;-2.30;99.90;;;;;;5070653;28;20833;-71
2023/01/19 05:44:41;;;;;;;6.75;5.10;;;-2.30;99.90;;;;;;5080038;28;20397;-71
2023/01/19 05:47:07;;;;;;;7.60;4.95;;;-2.10;99.90;;;;;;5089863;28;20850;-72
2023/01/19 05:49:32;;;;;;;6.90;6.00;;;-2.10;99.90;;;;;;5090648;28;20443;-72
2023/01/19 05:51:58;;;;;;;7.78;4.88;;;-2.00;99.90;;;;;;5090360;28;20402;-72
2023/01/19 05:54:23;;;;;;;5.82;4.85;;;-2.00;99.90;;;;;;5090172;28;20884;-72
2023/01/19 05:56:49;;;;;;;7.13;4.80;;;-2.10;99.90;;;;;;5090071;28;20383;-71
2023/01/19 05:59:16;;;;;;;7.00;5.00;;;-2.00;99.90;;;;;;5072606;28;20491;-71
2023/01/19 06:01:42;;;;;;;6.40;4.68;;;-2.00;99.90;;;;;;5090096;28;20386;-71
2023/01/19 06:04:07;;;;;;;5.10;4.55;;;-2.00;99.90;;;;;;5089891;28;20409;-71
2023/01/19 06:06:33;;;;;;;6.67;4.73;;;-2.00;99.90;;;;;;5090685;28;20382;-71
2023/01/19 06:08:58;;;;;;;5.70;5.07;;;-2.10;99.90;;;;;;5089703;28;20418;-71
2023/01/19 06:11:24;;;;;;;7.20;4.90;;;-2.10;99.90;;;;;;5072669;28;20480;-71
2023/01/19 06:13:50;;;;;;;6.65;4.97;;;-2.00;99.90;;;;;;5071624;28;20404;-72
2023/01/19 06:16:15;;;;;;;5.10;4.60;;;-2.10;99.90;;;;;;5090946;28;20424;-72
2023/01/19 06:18:41;;;;;;;5.50;4.60;;;-2.10;99.90;;;;;;5090823;28;20373;-71
2023/01/19 06:21:08;;;;;;;5.47;4.97;;;-2.10;99.90;;;;;;5090833;28;20775;-72
2023/01/19 06:23:35;;;;;;;5.47;4.80;;;-2.10;99.90;;;;;;5090206;28;20895;-72
2023/01/19 06:26:01;;;;;;;5.27;4.60;;;-2.10;99.90;;;;;;5090051;28;20398;-72
2023/01/19 06:28:27;;;;;;;6.97;4.60;;;-2.00;99.90;;;;;;5090407;28;20955;-72
2023/01/19 06:30:54;;;;;;;6.80;4.45;;;-2.10;99.90;;;;;;5090418;28;20492;-72
2023/01/19 06:33:20;;;;;;;4.80;4.30;;;-1.50;99.90;;;;;;5067828;28;20400;-72
2023/01/19 06:35:48;;;;;;;4.88;3.83;;;-1.70;99.90;;;;;;5070290;28;20388;-72
2023/01/19 06:38:13;;;;;;;4.13;3.70;;;-1.80;99.90;;;;;;5070024;28;20384;-72
2023/01/19 06:40:40;;;;;;;5.50;4.07;;;-2.00;99.90;;;;;;5070303;28;20372;-72
2023/01/19 06:43:06;;;;;;;4.80;4.30;;;-2.20;99.90;;;;;;5070970;28;20743;-75
2023/01/19 06:45:32;;;;;;;5.07;4.10;;;-2.20;99.90;;;;;;5090666;28;20733;-71
2023/01/19 06:47:59;;;;;;;5.47;4.85;;;-2.20;99.90;;;;;;5090048;28;20390;-72
2023/01/19 06:50:24;;;;;;;5.93;4.40;;;-2.10;99.90;;;;;;5090584;28;20397;-71
2023/01/19 06:52:50;;;;;;;5.15;4.40;;;-2.10;99.90;;;;;;5089248;28;20409;-71
2023/01/19 06:55:16;;;;;;;5.65;4.38;;;-2.10;99.90;;;;;;5090371;28;20476;-73
2023/01/19 06:57:43;;;;;;;7.28;5.10;;;-2.00;99.90;;;;;;5090004;28;20397;-72
2023/01/19 07:00:10;;;;;;;5.95;4.47;;;-2.00;99.90;;;;;;5090596;28;20382;-72
2023/01/19 07:02:36;;;;;;;5.68;4.30;;;-2.00;99.90;;;;;;5089122;28;20398;-72
2023/01/19 07:05:02;;;;;;;5.07;4.50;;;-1.90;99.90;;;;;;5090284;28;20398;-73
2023/01/19 07:07:28;;;;;;;6.00;4.40;;;-1.90;99.90;;;;;;5090319;28;20390;-72
2023/01/19 07:09:53;;;;;;;5.73;4.50;;;-2.00;99.90;;;;;;5093672;28;20383;-72
2023/01/19 07:12:19;;;;;;;5.60;4.90;;;-2.00;99.90;;;;;;5075144;28;20415;-71
2023/01/19 07:14:45;;;;;;;4.80;4.30;;;-2.00;99.90;;;;;;5093565;28;20421;-71
2023/01/19 07:17:11;;;;;;;5.47;4.38;;;-2.00;99.90;;;;;;5093670;28;20400;-72
2023/01/19 07:19:37;;;;;;;4.82;4.32;;;-1.70;99.90;;;;;;5093456;28;20389;-70
2023/01/19 07:22:02;;;;;;;4.50;4.10;;;-1.80;99.90;;;;;;5093620;28;20375;-71
2023/01/19 07:24:29;;;;;;;6.03;4.85;;;-1.90;99.90;;;;;;5092654;28;20378;-71
2023/01/19 07:26:55;;;;;;;4.47;3.75;;;-1.80;99.90;;;;;;5093303;28;20451;-71
2023/01/19 07:29:21;;;;;;;4.65;4.10;;;-1.70;99.90;;;;;;5093583;28;20378;-74
2023/01/19 07:31:47;;;;;;;4.70;4.18;;;-1.70;99.90;;;;;;5093205;28;20477;-72
2023/01/19 07:34:13;;;;;;;4.93;4.07;;;-1.70;99.90;;;;;;5074442;28;20458;-72
2023/01/19 07:36:39;;;;;;;5.10;3.97;;;-1.60;99.90;;;;;;5093286;28;20382;-73
2023/01/19 07:39:05;;;;;;;4.13;3.72;;;-1.70;99.90;;;;;;5093329;28;20390;-72
2023/01/19 07:41:30;;;;;;;5.00;4.00;;;-1.60;99.90;;;;;;5092969;28;20390;-72
2023/01/19 07:43:56;;;;;;;4.60;4.03;;;-1.60;99.90;;;;;;5092334;28;20389;-72
2023/01/19 07:46:21;;;;;;;6.23;3.40;;;-1.60;99.90;;;;;;5075065;28;20378;-71
2023/01/19 07:48:47;;;;;;;5.03;3.90;;;-1.50;99.90;;;;;;5093108;28;20587;-72
2023/01/19 07:51:16;;;;;;;5.00;3.87;;;-1.50;99.90;;;;;;5093039;28;20461;-73
2023/01/19 07:53:43;;;;;;;4.22;3.70;;;-1.60;99.90;;;;;;5092353;28;20402;-72
2023/01/19 07:56:08;;;;;;;4.53;3.60;;;-1.40;99.90;;;;;;5093740;28;20461;-72
2023/01/19 07:58:34;;;;;;;4.80;4.00;;;-1.60;99.90;;;;;;5094072;28;20490;-72
2023/01/19 08:01:04;;;;;;;6.35;3.97;;;-1.50;99.90;;;;;;5094091;28;20386;-71
2023/01/19 08:03:29;;;;;;;4.28;3.88;;;-1.40;99.90;;;;;;5131261;22;20849;-70
2023/01/19 08:05:55;;;;;;;4.00;3.60;;;-1.30;99.90;;;;;;5133821;27;20367;-70
2023/01/19 08:08:21;;;;;;;4.10;3.50;;;-1.50;99.90;;;;;;5127199;27;20391;-70
2023/01/19 08:10:50;;;;;;;3.83;3.10;;;-1.20;99.90;;;;;;5133675;27;20443;-71
2023/01/19 08:13:16;;;;;;;5.28;3.95;;;-1.30;99.90;;;;;;5132827;27;20420;-70
2023/01/19 08:15:41;;;;;;;3.70;3.40;;;-1.30;99.90;;;;;;5133756;27;20876;-70
2023/01/19 08:18:10;;;;;;;5.17;4.00;;;-1.30;99.90;;;;;;5132253;27;20414;-74
2023/01/19 08:20:36;;;;;;;4.60;3.50;;;-1.30;99.90;;;;;;5111325;28;20464;-71
2023/01/19 08:23:03;;;;;;;4.03;3.50;;;-1.40;99.90;;;;;;5112279;28;20403;-72
2023/01/19 08:25:34;;;;;;;4.55;3.90;;;-1.20;99.90;;;;;;5112884;28;20404;-73
2023/01/19 08:28:01;;;;;;;4.78;3.78;;;-1.30;99.90;;;;;;5114086;27;20381;-71
2023/01/19 08:30:26;;;;;;;4.00;3.70;;;-1.20;99.90;;;;;;5133273;27;20473;-71
2023/01/19 08:32:53;;;;;;;5.10;3.73;;;-1.20;99.90;;;;;;5132478;27;20478;-72
2023/01/19 08:35:19;;;;;;;4.90;3.70;;;-1.20;99.90;;;;;;5133255;27;20378;-71
2023/01/19 08:37:45;;;;;;;4.88;3.70;;;-0.90;99.90;;;;;;5133191;27;20423;-71
2023/01/19 08:40:11;;;;;;;4.77;3.70;;;-1.00;99.90;;;;;;5112621;27;20400;-72
2023/01/19 08:42:36;;;;;;;4.90;3.38;;;-1.00;99.90;;;;;;5111685;28;20377;-72
2023/01/19 08:45:02;;;;;;;3.90;3.50;;;-1.00;99.90;;;;;;5119964;27;20390;-72
2023/01/19 08:47:28;;;;;;;3.60;3.30;;;-0.90;99.90;;;;;;5132603;27;20447;-72
2023/01/19 08:49:53;;;;;;;4.17;3.30;;;-0.90;99.90;;;;;;5132835;27;20390;-71
2023/01/19 08:52:19;;;;;;;4.07;3.40;;;-0.80;99.90;;;;;;5132741;27;20405;-73
2023/01/19 08:54:44;;;;;;;4.93;3.25;;;-0.60;99.90;;;;;;5127288;27;20449;-72
2023/01/19 08:57:10;;;;;;;4.07;3.60;;;-0.60;99.90;;;;;;5112878;28;20501;-71
2023/01/19 08:59:37;;;;;;;4.37;3.40;;;-0.70;99.90;;;;;;5127515;27;20880;-72
2023/01/19 09:02:02;;;;;;;4.07;3.30;;;-0.50;99.90;;;;;;5124997;27;20387;-72
2023/01/19 09:04:28;;;;;;;5.50;3.60;;;-0.60;99.90;;;;;;5131783;27;20737;-72
2023/01/19 09:06:53;;;;;;;5.13;3.20;;;-0.40;99.90;;;;;;5132626;27;20399;-72
2023/01/19 09:09:19;;;;;;;4.50;3.13;;;-0.50;99.90;;;;;;5113796;27;20445;-71
2023/01/19 09:11:44;;;;;;;4.40;3.70;;;-0.30;99.90;;;;;;5112361;27;20380;-72
2023/01/19 09:14:10;;;;;;;6.13;3.67;;;-0.20;99.90;;;;;;5131437;27;20791;-73
2023/01/19 09:16:35;;;;;;;4.43;3.80;;;-0.20;99.90;;;;;;5132330;27;20378;-72
2023/01/19 09:19:01;;;;;;;3.90;3.43;;;-0.10;99.90;;;;;;5113321;27;20441;-72
2023/01/19 09:21:27;;;;;;;4.17;3.40;;;-0.20;99.90;;;;;;5110398;28;20416;-71
2023/01/19 09:23:53;;;;;;;4.43;3.70;;;0.00;99.90;;;;;;5110727;28;20391;-72
2023/01/19 09:26:21;;;;;;;5.43;4.60;;;0.20;99.90;;;;;;5111596;28;20403;-71
2023/01/19 09:28:46;;;;;;;4.88;4.32;;;0.10;99.90;;;;;;5127028;27;20379;-71
2023/01/19 09:31:13;;;;;;;5.80;4.65;;;0.40;99.90;;;;;;5132020;27;20389;-71
2023/01/19 09:33:38;;;;;;;5.32;4.60;;;0.20;99.90;;;;;;5126477;27;20427;-72
2023/01/19 09:36:04;;;;;;;5.60;4.25;;;0.40;99.90;;;;;;5111585;28;20480;-72
2023/01/19 09:38:33;;;;;;;6.80;4.53;;;0.10;99.90;;;;;;5111774;28;20384;-72
2023/01/19 09:40:59;;;;;;;6.80;5.10;;;0.20;99.90;;;;;;5111539;28;20501;-72
2023/01/19 09:43:32;;;;;;;6.03;4.22;;;0.40;99.90;;;;;;5111821;27;20385;-72
2023/01/19 09:46:01;;;;;;;6.87;4.87;;;0.60;99.90;;;;;;5125145;27;20510;-72
2023/01/19 09:48:44;;;;;;;6.35;5.47;;;0.80;99.90;;;;;;5109957;28;20444;-73
2023/01/19 09:51:14;;;;;;;8.70;4.87;;;0.50;99.90;;;;;;5111394;28;20391;-72
2023/01/19 09:53:49;;;;;;;5.88;4.70;;;0.60;99.90;;;;;;5110815;28;20471;-72
2023/01/19 09:56:17;;;;;;;5.78;3.83;;;0.60;99.90;;;;;;5118996;27;20891;-72
2023/01/19 09:58:43;;;;;;;4.35;3.70;;;0.60;99.90;;;;;;5118915;27;20445;-72
2023/01/19 10:01:52;;;;;;;4.43;3.75;;;0.80;99.90;;;;;;5110959;28;20376;-72
2023/01/19 10:04:30;;;;;;;5.13;3.85;;;0.90;99.90;;;;;;5067314;28;20476;-72
2023/01/19 10:07:36;;;;;;;6.30;3.85;;;0.90;99.90;;;;;;5105318;28;20387;-72
2023/01/19 10:10:16;;;;;;;4.80;3.88;;;1.30;99.90;;;;;;5110523;28;20403;-72
2023/01/19 10:13:00;;;;;;;4.82;3.38;;;1.40;99.90;;;;;;5109960;28;20445;-72
2023/01/19 10:16:05;;;;;;;3.92;3.53;;;1.60;99.90;;;;;;5130471;28;20843;-72
2023/01/19 10:18:44;;;;;;;4.70;3.60;;;1.50;99.90;;;;;;5131470;27;20387;-72
2023/01/19 10:21:27;;;;;;;3.80;3.50;;;1.20;99.90;;;;;;5131379;28;20740;-72
2023/01/19 10:24:00;;;;;;;4.30;3.90;;;1.30;99.90;;;;;;5122739;28;20438;-72
2023/01/19 10:26:45;;;;;;;4.27;3.83;;;1.40;99.90;;;;;;5110953;28;20453;-72
2023/01/19 10:29:29;;;;;;;3.47;3.10;;;1.50;99.90;;;;;;5111150;28;20831;-72
2023/01/19 10:32:07;;;;;;;4.05;3.22;;;1.40;99.90;;;;;;5114659;28;20469;-72
2023/01/19 10:34:33;;;;;;;4.00;3.20;;;1.60;99.90;;;;;;5130726;27;20476;-73
2023/01/19 10:37:11;;;;;;;3.67;3.20;;;1.50;99.90;;;;;;5131381;28;20928;-73
2023/01/19 10:39:37;;;;;;;3.90;3.40;;;1.30;99.90;;;;;;5131349;27;20404;-73
2023/01/19 10:42:04;;;;;;;3.95;3.65;;;1.30;99.90;;;;;;5130383;27;20390;-73
2023/01/19 10:44:36;;;;;;;4.40;3.80;;;1.30;99.90;;;;;;5133572;27;20872;-72
2023/01/19 10:47:05;;;;;;;4.05;3.40;;;1.10;99.90;;;;;;5135871;27;20965;-72
2023/01/19 10:49:33;;;;;;;6.25;3.75;;;1.50;99.90;;;;;;5135502;27;20374;-72
2023/01/19 10:51:59;;;;;;;4.50;3.40;;;1.50;99.90;;;;;;5114709;27;20384;-72
2023/01/19 10:54:28;;;;;;;3.90;3.55;;;1.40;99.90;;;;;;5113795;28;20392;-72
2023/01/19 10:57:02;;;;;;;3.88;3.00;;;1.30;99.90;;;;;;5114482;28;20441;-72
2023/01/19 10:59:32;;;;;;;3.60;3.30;;;1.20;99.90;;;;;;5114545;28;20485;-72
2023/01/19 11:02:16;;;;;;;3.80;3.40;;;1.20;99.90;;;;;;5127381;27;20422;-72
2023/01/19 11:04:43;;;;;;;3.70;3.40;;;1.20;99.90;;;;;;5132980;27;20491;-72
2023/01/19 11:07:15;;;;;;;4.65;3.92;;;1.30;99.90;;;;;;5134502;27;20374;-72
2023/01/19 11:09:40;;;;;;;4.50;3.58;;;1.60;99.90;;;;;;5114296;28;20388;-72
2023/01/19 11:12:15;;;;;;;3.92;3.58;;;1.50;99.90;;;;;;5121910;27;20435;-72
2023/01/19 11:14:41;;;;;;;3.50;3.20;;;1.60;99.90;;;;;;5134137;27;20379;-72
2023/01/19 11:17:20;;;;;;;5.27;4.10;;;2.00;99.90;;;;;;5134767;27;20390;-72
2023/01/19 11:19:55;;;;;;;5.78;3.97;;;2.40;99.90;;;;;;5134829;27;20371;-72
2023/01/19 11:22:29;;;;;;;4.15;3.80;;;2.90;99.90;;;;;;5125292;27;20479;-72
2023/01/19 11:25:02;;;;;;;7.22;4.50;;;3.20;99.90;;;;;;5113429;28;20380;-72
2023/01/19 11:27:31;;;;;;;4.50;4.10;;;2.80;99.90;;;;;;5123111;27;20432;-73
2023/01/19 11:30:09;;;;;;;3.75;3.35;;;3.20;99.90;;;;;;5134553;27;20367;-72
2023/01/19 11:32:35;;;;;;;4.78;3.72;;;3.50;99.90;;;;;;5132007;27;20498;-73
2023/01/19 11:35:22;;;;;;;3.22;3.03;;;4.20;96.10;;;;;;5134499;27;20375;-72
2023/01/19 11:37:48;;;;;;;4.85;3.03;;;4.90;92.10;;;;;;5121322;27;20766;-72
2023/01/19 11:40:15;;;;;;;3.00;2.70;;;5.90;76.40;;;;;;5115288;27;20384;-73
2023/01/19 11:42:43;;;;;;;4.23;3.10;;;5.90;72.40;;;;;;5132704;27;20475;-73
2023/01/19 11:45:15;;;;;;;4.10;3.05;;;5.60;81.50;;;;;;5132818;27;20386;-73
2023/01/19 11:47:51;;;;;;;3.10;2.50;;;6.00;75.80;;;;;;5134224;27;20382;-73
2023/01/19 11:50:24;;;;;;;3.40;3.10;;;5.40;74.90;;;;;;5132492;27;20464;-73
2023/01/19 11:53:17;;;;;;;3.28;2.97;;;5.10;81.20;;;;;;5112539;28;20581;-73
2023/01/19 11:55:58;;;;;;;5.90;3.10;;;4.70;84.00;;;;;;5107190;28;20427;-73
2023/01/19 11:58:25;;;;;;;2.83;2.63;;;4.00;95.00;;;;;;5113695;28;20377;-72
2023/01/19 12:00:59;;;;;;;2.95;2.65;;;3.60;99.90;;;;;;5113455;28;20373;-73
2023/01/19 12:03:30;;;;;;;2.72;2.45;;;3.20;99.90;;;;;;5113109;27;20431;-73
2023/01/19 12:06:08;;;;;;;3.83;2.80;;;3.10;99.90;;;;;;5133724;27;20389;-73
2023/01/19 12:08:40;;;;;;;3.20;2.90;;;3.30;99.90;;;;;;5104534;28;20436;-74
2023/01/19 12:11:10;;;;;;;4.47;3.30;;;3.70;99.90;;;;;;5121397;27;20395;-74
2023/01/19 12:13:36;;;;;;;3.45;3.03;;;4.20;96.20;;;;;;5124237;27;20434;-72
2023/01/19 12:16:07;;;;;;;2.60;2.38;;;5.20;91.10;;;;;;5119019;27;20753;-74
2023/01/19 12:18:39;;;;;;;3.00;2.50;;;5.90;75.60;;;;;;5128527;27;20467;-73
2023/01/19 12:21:05;;;;;;;2.35;2.15;;;6.40;70.10;;;;;;5112855;28;20430;-73
2023/01/19 12:23:57;;;;;;;2.30;2.10;;;6.30;69.30;;;;;;5112470;27;20749;-74
2023/01/19 12:26:54;;;;;;;2.70;2.50;;;6.40;67.30;;;;;;5111586;28;21019;-74
2023/01/19 12:29:22;;;;;;;2.58;2.35;;;6.80;64.20;;;;;;5112808;28;20395;-73
2023/01/19 12:32:13;;;;;;;3.80;2.70;;;5.40;71.50;;;;;;5112720;28;20377;-73
2023/01/19 12:34:50;;;;;;;4.13;3.15;;;4.80;91.30;;;;;;5128956;27;20745;-74
2023/01/19 12:37:40;;;;;;;4.10;3.20;;;4.40;95.80;;;;;;5131781;27;20425;-73
2023/01/19 12:40:25;;;;;;;4.65;3.15;;;4.10;99.70;;;;;;5127595;27;20756;-73
2023/01/19 12:43:00;;;;;;;4.32;3.60;;;3.70;99.90;;;;;;5119192;27;20804;-73
2023/01/19 12:45:38;;;;;;;4.17;3.17;;;3.70;99.90;;;;;;5111080;28;20723;-73
2023/01/19 12:48:10;;;;;;;5.43;3.58;;;3.50;99.90;;;;;;5112444;28;20375;-73
2023/01/19 12:50:37;;;;;;;5.20;3.50;;;3.30;99.90;;;;;;5112407;28;20380;-73
2023/01/19 12:53:07;;;;;;;4.32;3.60;;;3.50;99.90;;;;;;5124852;27;20397;-73
2023/01/19 12:55:36;;;;;;;4.30;3.90;;;3.60;99.90;;;;;;5119236;27;20492;-73
2023/01/19 12:58:05;;;;;;;5.22;3.90;;;3.50;99.90;;;;;;5113443;27;20450;-73
2023/01/19 13:00:40;;;;;;;5.15;3.80;;;3.30;99.90;;;;;;5131979;27;20421;-73
2023/01/19 13:03:17;;;;;;;4.32;3.60;;;3.30;99.90;;;;;;5131364;27;20937;-73
2023/01/19 13:05:43;;;;;;;4.80;4.00;;;3.50;99.90;;;;;;5131821;27;20756;-74
2023/01/19 13:08:08;;;;;;;3.50;3.20;;;3.30;99.90;;;;;;5111321;27;20394;-73